Time;durP1;ratioP1;P1;durP2;ratioP2;P2;SDS_P1;SDS_P2;PMS_P1;PMS_P2;Temp;Humidity;BMP_temperature;BMP_pressure;BME280_temperature;BME280_humidity;BME280_pressure;Samples;Min_cycle;Max_cycle;Signal;HPM_P1;HPM_P2
2023/03/05 00:00:13;;;;;;;29.87;18.33;;;9.90;48.10;;;;;;5013008;28;20504;-49
2023/03/05 00:02:39;;;;;;;30.50;20.10;;;9.90;48.10;;;;;;5013759;28;20432;-50
2023/03/05 00:05:06;;;;;;;34.53;19.33;;;9.90;48.20;;;;;;5013772;28;20542;-49
2023/03/05 00:07:32;;;;;;;29.90;19.30;;;9.90;48.30;;;;;;5013245;28;20444;-49
2023/03/05 00:10:03;;;;;;;32.93;19.30;;;9.90;48.40;;;;;;5012180;28;20440;-52
2023/03/05 00:12:29;;;;;;;34.13;18.77;;;9.90;48.30;;;;;;5005596;28;20444;-49
2023/03/05 00:14:55;;;;;;;34.40;20.03;;;9.90;48.20;;;;;;5013482;28;20455;-51
2023/03/05 00:17:20;;;;;;;39.67;20.10;;;9.90;48.20;;;;;;5012350;28;20445;-53
2023/03/05 00:19:46;;;;;;;34.97;20.50;;;10.00;47.40;;;;;;5011999;28;20276;-50
2023/03/05 00:22:11;;;;;;;33.70;20.17;;;10.00;47.30;;;;;;5011652;28;20236;-50
2023/03/05 00:24:37;;;;;;;35.00;18.53;;;10.00;47.30;;;;;;5008899;28;20736;-49
2023/03/05 00:27:03;;;;;;;28.23;17.47;;;10.00;47.40;;;;;;5003332;28;20194;-50
2023/03/05 00:29:29;;;;;;;32.57;19.40;;;9.90;48.20;;;;;;4996703;28;20199;-50
2023/03/05 00:31:54;;;;;;;35.53;20.33;;;9.80;48.40;;;;;;4995885;28;20210;-50
2023/03/05 00:34:20;;;;;;;28.83;17.87;;;9.80;48.50;;;;;;5010388;28;20851;-49
2023/03/05 00:36:49;;;;;;;37.60;19.00;;;9.80;48.50;;;;;;5003564;28;20198;-51
2023/03/05 00:39:16;;;;;;;34.70;20.10;;;9.80;48.60;;;;;;5002943;28;20191;-49
2023/03/05 00:41:42;;;;;;;31.73;18.67;;;9.80;48.60;;;;;;4997567;28;20445;-50
2023/03/05 00:44:08;;;;;;;35.80;18.47;;;9.80;48.50;;;;;;5009505;28;20491;-50
2023/03/05 00:46:34;;;;;;;30.90;17.53;;;9.90;48.60;;;;;;5009262;28;20438;-49
2023/03/05 00:48:59;;;;;;;31.13;18.33;;;9.90;48.70;;;;;;5009419;28;20695;-50
2023/03/05 00:51:25;;;;;;;29.20;18.50;;;9.90;48.60;;;;;;5009090;28;20430;-49
2023/03/05 00:53:51;;;;;;;30.07;17.90;;;9.80;48.60;;;;;;4996235;28;20191;-49
2023/03/05 00:56:16;;;;;;;30.07;18.30;;;9.70;48.80;;;;;;5011481;28;20197;-49
2023/03/05 00:58:42;;;;;;;30.00;17.10;;;9.80;48.90;;;;;;5007174;28;20196;-50
2023/03/05 01:01:08;;;;;;;29.03;18.27;;;9.80;49.00;;;;;;5003430;28;20549;-50
2023/03/05 01:03:35;;;;;;;30.13;17.10;;;9.90;49.00;;;;;;5003293;28;20744;-53
2023/03/05 01:06:05;;;;;;;27.83;16.73;;;9.90;48.90;;;;;;5005718;28;20480;-49
2023/03/05 01:08:30;;;;;;;31.57;17.97;;;9.90;48.80;;;;;;5008121;28;20796;-50
2023/03/05 01:10:56;;;;;;;32.80;17.30;;;9.90;48.90;;;;;;4998889;28;20455;-49
2023/03/05 01:13:22;;;;;;;28.70;18.30;;;9.90;49.00;;;;;;4998633;28;20204;-50
2023/03/05 01:15:49;;;;;;;26.80;16.10;;;9.90;49.00;;;;;;5001508;28;20219;-50
2023/03/05 01:18:16;;;;;;;26.00;16.00;;;9.90;48.90;;;;;;4998773;28;20442;-49
2023/03/05 01:20:42;;;;;;;28.27;17.30;;;9.70;48.90;;;;;;5004767;28;20792;-49
2023/03/05 01:23:08;;;;;;;29.80;18.63;;;9.80;49.10;;;;;;5007619;28;20452;-49
2023/03/05 01:25:33;;;;;;;30.37;17.17;;;9.80;49.10;;;;;;4997796;28;20268;-50
2023/03/05 01:27:59;;;;;;;37.07;18.27;;;9.80;49.20;;;;;;4996778;28;20202;-52
2023/03/05 01:30:25;;;;;;;29.10;17.33;;;9.80;49.20;;;;;;5008115;28;20190;-51
2023/03/05 01:32:51;;;;;;;27.80;15.57;;;9.80;49.10;;;;;;5000068;28;20448;-51
2023/03/05 01:35:20;;;;;;;25.63;17.63;;;9.80;49.10;;;;;;4983292;28;20336;-49
2023/03/05 01:37:46;;;;;;;29.47;18.30;;;9.80;49.20;;;;;;5002567;28;20264;-50
2023/03/05 01:40:14;;;;;;;26.53;16.07;;;9.80;49.10;;;;;;5006397;28;20445;-50
2023/03/05 01:42:44;;;;;;;28.33;16.37;;;9.80;49.10;;;;;;4994077;28;20456;-50
2023/03/05 01:45:16;;;;;;;36.53;18.10;;;9.80;49.20;;;;;;4996661;28;20487;-49
2023/03/05 01:47:42;;;;;;;33.87;18.40;;;9.80;49.30;;;;;;4977942;28;20445;-52
2023/03/05 01:50:15;;;;;;;31.73;16.60;;;9.80;49.50;;;;;;4990470;28;20872;-50
2023/03/05 01:52:45;;;;;;;28.73;17.23;;;9.90;49.50;;;;;;5006575;28;20445;-49
2023/03/05 01:55:16;;;;;;;32.63;18.47;;;9.90;49.50;;;;;;5003740;28;20433;-52
2023/03/05 01:57:48;;;;;;;33.57;18.40;;;9.80;49.60;;;;;;4997116;28;20424;-49
2023/03/05 02:00:21;;;;;;;31.03;18.63;;;9.80;49.60;;;;;;5004612;28;20433;-49
2023/03/05 02:02:49;;;;;;;30.90;19.30;;;9.90;49.50;;;;;;5010040;28;21143;-49
2023/03/05 02:05:36;;;;;;;36.27;17.70;;;9.90;49.40;;;;;;5011014;28;20583;-50
2023/03/05 02:08:06;;;;;;;32.13;18.80;;;9.90;50.00;;;;;;4993518;28;20434;-49
2023/03/05 02:10:38;;;;;;;30.60;16.50;;;9.90;49.40;;;;;;4992932;28;20924;-49
2023/03/05 02:13:10;;;;;;;35.43;18.90;;;9.80;49.50;;;;;;4997373;28;20441;-50
2023/03/05 02:15:37;;;;;;;30.17;17.80;;;9.80;49.60;;;;;;5006459;28;20451;-49
2023/03/05 02:18:03;;;;;;;32.27;18.53;;;9.80;49.70;;;;;;5006820;28;20934;-49
2023/03/05 02:20:42;;;;;;;28.33;17.27;;;9.90;49.50;;;;;;5007437;28;20459;-48
2023/03/05 02:23:10;;;;;;;27.40;16.93;;;9.90;49.50;;;;;;4997855;28;20898;-49
2023/03/05 02:25:36;;;;;;;28.60;18.50;;;9.90;49.50;;;;;;5002153;28;20923;-49
2023/03/05 02:28:07;;;;;;;34.23;20.80;;;9.90;49.40;;;;;;5009708;28;20491;-50
2023/03/05 02:30:34;;;;;;;26.90;17.60;;;9.90;49.30;;;;;;4996553;28;20206;-49
2023/03/05 02:33:00;;;;;;;36.03;20.07;;;9.80;49.60;;;;;;4996157;28;20532;-50
2023/03/05 02:35:26;;;;;;;33.50;19.80;;;9.80;49.70;;;;;;5009118;28;20639;-49
2023/03/05 02:37:51;;;;;;;30.80;19.17;;;9.70;49.80;;;;;;5006178;28;21026;-49
2023/03/05 02:40:17;;;;;;;29.90;18.47;;;9.70;49.90;;;;;;5004378;28;20689;-49
2023/03/05 02:42:42;;;;;;;36.17;20.10;;;9.70;50.10;;;;;;4997681;28;20201;-49
2023/03/05 02:45:09;;;;;;;30.80;18.83;;;9.60;50.30;;;;;;5005789;28;20228;-49
2023/03/05 02:47:35;;;;;;;34.53;17.43;;;9.70;50.30;;;;;;5005590;28;20204;-50
2023/03/05 02:50:01;;;;;;;28.80;18.47;;;9.70;50.20;;;;;;4993598;28;20444;-49
2023/03/05 02:52:28;;;;;;;30.53;19.27;;;9.70;50.10;;;;;;4995901;28;20201;-49
2023/03/05 02:54:53;;;;;;;32.63;19.00;;;9.80;50.20;;;;;;4994463;28;20190;-54
2023/03/05 02:57:19;;;;;;;32.10;19.10;;;9.80;50.10;;;;;;4992170;28;20439;-49
2023/03/05 02:59:45;;;;;;;31.50;19.60;;;9.70;50.20;;;;;;4999143;28;20201;-49
2023/03/05 03:02:11;;;;;;;36.23;19.33;;;9.80;50.20;;;;;;4999176;28;20229;-49
2023/03/05 03:04:37;;;;;;;33.10;19.43;;;9.70;50.10;;;;;;4998937;28;20556;-49
2023/03/05 03:07:02;;;;;;;34.57;19.77;;;9.70;50.20;;;;;;5007781;28;20202;-49
2023/03/05 03:09:28;;;;;;;30.70;19.03;;;9.70;50.30;;;;;;5000327;28;20277;-50
2023/03/05 03:11:53;;;;;;;33.03;18.93;;;9.70;50.20;;;;;;4994425;28;20224;-50
2023/03/05 03:14:20;;;;;;;33.70;18.27;;;9.80;50.20;;;;;;5002876;28;20596;-49
2023/03/05 03:16:45;;;;;;;30.27;18.27;;;9.80;50.10;;;;;;5000405;28;20240;-51
2023/03/05 03:19:11;;;;;;;34.30;19.40;;;9.80;50.60;;;;;;4987020;28;20851;-50
2023/03/05 03:21:37;;;;;;;32.77;18.70;;;9.80;50.00;;;;;;5003954;28;20194;-50
2023/03/05 03:24:03;;;;;;;40.80;20.00;;;9.90;50.00;;;;;;5006856;28;20568;-49
2023/03/05 03:26:30;;;;;;;34.63;18.87;;;9.80;50.00;;;;;;5006302;28;20202;-50
2023/03/05 03:28:56;;;;;;;31.60;18.60;;;9.90;50.10;;;;;;5007937;28;20200;-51
2023/03/05 03:31:22;;;;;;;34.00;20.07;;;9.90;50.00;;;;;;5002450;28;20872;-50
2023/03/05 03:33:48;;;;;;;31.60;18.37;;;9.90;50.00;;;;;;5002661;28;20528;-51
2023/03/05 03:36:13;;;;;;;36.67;19.87;;;10.00;49.20;;;;;;5005580;28;20198;-51
2023/03/05 03:38:39;;;;;;;31.40;17.60;;;10.00;49.10;;;;;;5003710;28;20201;-49
2023/03/05 03:41:06;;;;;;;34.67;19.03;;;10.00;49.10;;;;;;5006028;28;20190;-50
2023/03/05 03:43:33;;;;;;;33.73;18.80;;;10.00;49.00;;;;;;5001470;28;20202;-51
2023/03/05 03:45:58;;;;;;;39.27;18.27;;;10.00;49.20;;;;;;5006816;28;20559;-50
2023/03/05 03:48:24;;;;;;;36.10;18.53;;;9.90;50.10;;;;;;5002475;28;20448;-49
2023/03/05 03:50:49;;;;;;;38.77;21.33;;;9.90;50.80;;;;;;5002313;28;20193;-50
2023/03/05 03:53:16;;;;;;;41.03;20.10;;;9.90;50.40;;;;;;5005511;28;20620;-49
2023/03/05 03:55:45;;;;;;;32.17;18.30;;;9.90;50.40;;;;;;5000040;28;20301;-50
2023/03/05 03:58:11;;;;;;;34.70;18.90;;;9.90;50.40;;;;;;5003288;28;20460;-51
2023/03/05 04:00:36;;;;;;;35.93;18.97;;;9.90;50.50;;;;;;5007556;28;20448;-51
2023/03/05 04:03:02;;;;;;;33.30;19.00;;;9.90;50.40;;;;;;5010762;28;20307;-54
2023/03/05 04:05:28;;;;;;;38.97;20.20;;;9.90;50.40;;;;;;5009372;28;20233;-53
2023/03/05 04:07:53;;;;;;;33.27;19.67;;;9.90;50.60;;;;;;5009011;28;20568;-53
2023/03/05 04:10:19;;;;;;;34.00;18.10;;;9.90;50.70;;;;;;5009377;28;20193;-54
2023/03/05 04:12:45;;;;;;;33.60;19.17;;;9.80;50.60;;;;;;5008293;28;20439;-52
2023/03/05 04:15:11;;;;;;;33.50;19.10;;;9.90;50.70;;;;;;5008117;28;20525;-54
2023/03/05 04:17:36;;;;;;;29.60;19.77;;;9.90;50.70;;;;;;4993564;28;20233;-54
2023/03/05 04:20:04;;;;;;;31.30;19.10;;;9.80;50.80;;;;;;5006862;28;20452;-54
2023/03/05 04:22:30;;;;;;;30.53;18.80;;;9.80;50.90;;;;;;5009595;28;20212;-54
2023/03/05 04:24:55;;;;;;;32.03;18.87;;;9.80;50.90;;;;;;5009353;28;20964;-53
2023/03/05 04:27:21;;;;;;;32.30;17.80;;;9.80;50.90;;;;;;5010289;28;20198;-52
2023/03/05 04:29:47;;;;;;;35.63;19.40;;;9.90;51.00;;;;;;5003263;28;20808;-52
2023/03/05 04:32:12;;;;;;;35.33;19.77;;;9.90;50.90;;;;;;5010681;28;20200;-53
2023/03/05 04:34:38;;;;;;;28.97;17.43;;;9.90;51.00;;;;;;5008644;28;20301;-52
2023/03/05 04:37:04;;;;;;;32.67;18.10;;;9.80;51.10;;;;;;5000853;28;20649;-51
2023/03/05 04:39:29;;;;;;;27.93;17.70;;;9.80;51.10;;;;;;5010623;28;20209;-51
2023/03/05 04:41:55;;;;;;;33.03;19.27;;;9.80;51.10;;;;;;5005736;28;20190;-54
2023/03/05 04:44:22;;;;;;;31.73;18.03;;;9.90;51.00;;;;;;5000498;28;20593;-53
2023/03/05 04:46:48;;;;;;;36.17;19.23;;;9.90;50.70;;;;;;5003376;28;21031;-53
2023/03/05 04:49:14;;;;;;;29.70;18.17;;;9.90;50.70;;;;;;5009235;28;20883;-50
2023/03/05 04:51:40;;;;;;;33.20;17.87;;;9.90;50.80;;;;;;5005200;28;20473;-50
2023/03/05 04:54:06;;;;;;;30.17;18.00;;;9.80;50.90;;;;;;5007663;28;20481;-52
2023/03/05 04:56:31;;;;;;;31.80;19.67;;;9.90;51.10;;;;;;4999488;28;20237;-51
2023/03/05 04:58:57;;;;;;;34.13;19.60;;;9.90;51.20;;;;;;5007287;28;20213;-52
2023/03/05 05:01:23;;;;;;;35.90;19.70;;;9.90;51.10;;;;;;5011275;28;20201;-51
2023/03/05 05:03:49;;;;;;;30.27;18.20;;;9.90;51.00;;;;;;5009128;28;20476;-54
2023/03/05 05:06:14;;;;;;;33.60;18.93;;;9.90;51.00;;;;;;5011133;28;20298;-52
2023/03/05 05:08:40;;;;;;;31.47;18.57;;;9.90;51.00;;;;;;5009989;28;20202;-53
2023/03/05 05:11:07;;;;;;;33.70;19.43;;;9.90;51.20;;;;;;5005973;28;20202;-53
2023/03/05 05:13:33;;;;;;;33.10;19.03;;;9.90;51.30;;;;;;5007392;28;20288;-53
2023/03/05 05:15:59;;;;;;;33.67;19.27;;;9.90;51.30;;;;;;5005212;28;20492;-50
2023/03/05 05:18:25;;;;;;;33.83;20.70;;;9.90;51.30;;;;;;4996209;28;20470;-51
2023/03/05 05:20:51;;;;;;;33.60;18.67;;;9.90;51.30;;;;;;5006579;28;20194;-50
2023/03/05 05:23:17;;;;;;;36.67;18.90;;;9.90;51.30;;;;;;5006338;28;20436;-49
2023/03/05 05:25:44;;;;;;;35.43;20.27;;;9.90;51.20;;;;;;5011720;28;20236;-49
2023/03/05 05:28:11;;;;;;;31.13;19.13;;;9.90;51.20;;;;;;5002279;28;20449;-52
2023/03/05 05:30:38;;;;;;;31.70;19.00;;;9.90;51.30;;;;;;5006424;28;20433;-48
2023/03/05 05:33:03;;;;;;;30.53;18.50;;;9.90;51.40;;;;;;5004794;28;20516;-49
2023/03/05 05:35:29;;;;;;;27.53;17.03;;;9.90;51.50;;;;;;5005302;28;20458;-49
2023/03/05 05:37:54;;;;;;;34.00;18.67;;;9.90;51.50;;;;;;5000617;28;20269;-52
2023/03/05 05:40:20;;;;;;;30.53;18.53;;;9.90;51.40;;;;;;4993014;28;20202;-49
2023/03/05 05:42:46;;;;;;;32.93;18.60;;;9.90;51.40;;;;;;4996158;28;20205;-49
2023/03/05 05:45:14;;;;;;;29.60;17.90;;;9.90;51.30;;;;;;4979275;28;20657;-49
2023/03/05 05:47:40;;;;;;;35.97;16.47;;;10.00;50.50;;;;;;4999304;28;20198;-49
2023/03/05 05:50:06;;;;;;;35.70;19.70;;;10.00;50.40;;;;;;4997039;28;20436;-49
2023/03/05 05:52:32;;;;;;;29.17;18.87;;;10.00;50.40;;;;;;5006750;28;20202;-49
2023/03/05 05:54:57;;;;;;;34.13;18.23;;;10.00;50.40;;;;;;5010755;28;20441;-50
2023/03/05 05:57:23;;;;;;;27.30;16.90;;;10.00;50.30;;;;;;5010804;28;20209;-48
2023/03/05 05:59:49;;;;;;;33.67;19.10;;;10.00;50.20;;;;;;5007645;28;20313;-48
2023/03/05 06:02:15;;;;;;;30.80;18.83;;;10.00;50.20;;;;;;5004370;28;20893;-49
2023/03/05 06:04:40;;;;;;;27.57;18.30;;;10.00;50.20;;;;;;4998177;28;20652;-49
2023/03/05 06:07:07;;;;;;;33.70;19.17;;;10.00;50.20;;;;;;5010825;28;20190;-48
2023/03/05 06:09:35;;;;;;;31.87;20.00;;;10.00;50.30;;;;;;4998896;28;20696;-48
2023/03/05 06:12:00;;;;;;;31.60;18.97;;;10.00;50.40;;;;;;5002342;28;20441;-50
2023/03/05 06:14:26;;;;;;;30.67;19.03;;;10.00;50.30;;;;;;5010625;28;20441;-53
2023/03/05 06:16:52;;;;;;;32.40;19.30;;;10.00;50.20;;;;;;5008947;28;20863;-49
2023/03/05 06:19:17;;;;;;;34.57;19.80;;;10.00;50.30;;;;;;5002278;28;20306;-52
2023/03/05 06:21:43;;;;;;;37.87;18.70;;;10.00;50.30;;;;;;5000496;28;20196;-49
2023/03/05 06:24:10;;;;;;;36.17;21.67;;;10.00;50.20;;;;;;4995291;28;20674;-50
2023/03/05 06:26:35;;;;;;;31.87;18.53;;;10.00;50.30;;;;;;4994832;28;20259;-52
2023/03/05 06:29:01;;;;;;;35.10;20.00;;;10.00;50.40;;;;;;4994424;28;20481;-52
2023/03/05 06:31:28;;;;;;;34.90;18.17;;;10.00;50.40;;;;;;5005204;28;20607;-50
2023/03/05 06:33:56;;;;;;;32.27;18.90;;;10.00;50.40;;;;;;5007188;28;20206;-53
2023/03/05 06:36:23;;;;;;;33.27;18.60;;;10.00;50.40;;;;;;4986860;28;20441;-48
2023/03/05 06:38:50;;;;;;;28.37;17.70;;;10.10;50.60;;;;;;5004625;28;20448;-49
2023/03/05 06:41:18;;;;;;;31.60;17.80;;;10.10;52.50;;;;;;5006068;28;20429;-48
2023/03/05 06:43:46;;;;;;;30.80;17.73;;;10.40;54.10;;;;;;5001845;28;20821;-49
2023/03/05 06:46:15;;;;;;;28.67;18.10;;;10.70;53.30;;;;;;4994676;28;20485;-49
2023/03/05 06:48:42;;;;;;;37.30;22.67;;;11.00;51.40;;;;;;5000765;28;20449;-50
2023/03/05 06:51:19;;;;;;;31.30;22.67;;;11.30;50.40;;;;;;5004761;28;20445;-48
2023/03/05 06:53:45;;;;;;;35.57;21.50;;;11.50;49.60;;;;;;4998655;28;20454;-51
2023/03/05 06:56:12;;;;;;;30.10;20.70;;;11.60;48.90;;;;;;4996124;28;20445;-51
2023/03/05 06:58:43;;;;;;;28.10;20.47;;;11.70;48.80;;;;;;4997791;28;20449;-47
2023/03/05 07:01:08;;;;;;;31.60;20.93;;;11.80;48.40;;;;;;4996454;28;20829;-49
2023/03/05 07:03:35;;;;;;;33.33;21.10;;;11.90;47.80;;;;;;4997236;28;20487;-49
2023/03/05 07:06:06;;;;;;;33.00;20.70;;;12.00;47.80;;;;;;4999798;28;20222;-50
2023/03/05 07:08:32;;;;;;;32.83;18.60;;;12.10;47.50;;;;;;4994468;28;20459;-49
2023/03/05 07:10:58;;;;;;;35.77;20.70;;;12.20;47.30;;;;;;5003200;28;20453;-49
2023/03/05 07:13:24;;;;;;;34.10;21.20;;;12.20;47.00;;;;;;5004046;28;20861;-49
2023/03/05 07:15:49;;;;;;;29.67;18.57;;;12.30;46.80;;;;;;5004702;28;20434;-51
2023/03/05 07:18:15;;;;;;;33.97;18.43;;;12.40;46.80;;;;;;5007592;28;20662;-48
2023/03/05 07:20:40;;;;;;;28.17;17.27;;;12.40;46.50;;;;;;5005095;28;20241;-49
2023/03/05 07:23:06;;;;;;;34.20;18.10;;;12.40;46.30;;;;;;5006922;28;20198;-49
2023/03/05 07:25:35;;;;;;;27.03;17.20;;;12.40;46.30;;;;;;5002067;28;20233;-49
2023/03/05 07:28:00;;;;;;;32.50;20.67;;;12.50;46.20;;;;;;5005529;28;20204;-49
2023/03/05 07:30:26;;;;;;;29.87;19.73;;;12.50;46.10;;;;;;5007437;28;20782;-48
2023/03/05 07:32:52;;;;;;;26.87;18.40;;;12.50;46.00;;;;;;5008593;28;20194;-50
2023/03/05 07:35:17;;;;;;;29.10;20.30;;;12.50;45.90;;;;;;5003813;28;20191;-50
2023/03/05 07:37:43;;;;;;;31.03;19.03;;;12.60;46.10;;;;;;5003095;28;20198;-49
2023/03/05 07:40:09;;;;;;;29.47;19.00;;;12.60;45.70;;;;;;5004738;28;20633;-50
2023/03/05 07:42:35;;;;;;;34.37;20.40;;;12.60;45.90;;;;;;4999779;28;20187;-48
2023/03/05 07:45:00;;;;;;;35.30;18.80;;;12.70;45.90;;;;;;5010409;28;20582;-48
2023/03/05 07:47:26;;;;;;;37.07;21.57;;;12.70;45.70;;;;;;4999080;28;20199;-53
2023/03/05 07:49:51;;;;;;;26.30;18.17;;;12.70;45.60;;;;;;4998409;28;20277;-49
2023/03/05 07:52:17;;;;;;;30.27;18.40;;;12.70;45.40;;;;;;5006905;28;20663;-48
2023/03/05 07:54:43;;;;;;;24.83;17.43;;;12.70;45.50;;;;;;5003906;28;20190;-48
2023/03/05 07:57:11;;;;;;;29.53;17.30;;;12.70;45.80;;;;;;5003875;28;20248;-49
2023/03/05 07:59:37;;;;;;;25.50;17.30;;;12.80;45.60;;;;;;5002572;28;20261;-48
2023/03/05 08:02:02;;;;;;;24.50;16.63;;;12.80;45.40;;;;;;5000450;28;20449;-49
2023/03/05 08:04:30;;;;;;;27.90;17.97;;;12.80;45.10;;;;;;5012589;28;20956;-48
2023/03/05 08:06:56;;;;;;;30.80;18.30;;;12.90;45.20;;;;;;5003332;28;20198;-47
2023/03/05 08:09:22;;;;;;;31.17;17.50;;;12.90;45.10;;;;;;5008383;28;20527;-47
2023/03/05 08:11:48;;;;;;;29.37;17.73;;;12.90;45.40;;;;;;5011029;28;20432;-47
2023/03/05 08:14:13;;;;;;;29.53;17.80;;;12.90;45.40;;;;;;5008605;28;21373;-47
2023/03/05 08:16:39;;;;;;;30.50;17.73;;;13.00;45.40;;;;;;5001690;28;20194;-50
2023/03/05 08:19:05;;;;;;;28.63;18.20;;;13.00;45.20;;;;;;5005848;28;20191;-49
2023/03/05 08:21:34;;;;;;;31.73;18.10;;;13.00;44.90;;;;;;5002344;28;20429;-48
2023/03/05 08:24:03;;;;;;;29.30;19.10;;;13.00;45.10;;;;;;5009892;28;20452;-48
2023/03/05 08:26:30;;;;;;;33.20;18.40;;;13.00;45.10;;;;;;5011949;28;20449;-50
2023/03/05 08:28:56;;;;;;;28.10;17.90;;;13.10;45.10;;;;;;4994039;28;20426;-48
2023/03/05 08:31:24;;;;;;;26.37;18.30;;;13.10;45.20;;;;;;5001095;28;20449;-47
2023/03/05 08:33:52;;;;;;;29.30;17.07;;;13.10;45.00;;;;;;4993479;28;20429;-49
2023/03/05 08:36:17;;;;;;;25.77;14.77;;;13.10;44.80;;;;;;5011137;28;20444;-46
2023/03/05 08:38:45;;;;;;;24.20;15.83;;;13.00;44.60;;;;;;5003354;28;20980;-48
2023/03/05 08:41:11;;;;;;;21.87;14.83;;;12.90;44.70;;;;;;5000811;28;20245;-47
2023/03/05 08:43:37;;;;;;;29.40;16.10;;;12.80;45.20;;;;;;5004473;28;20441;-49
2023/03/05 08:46:03;;;;;;;24.87;14.23;;;12.90;45.30;;;;;;5003377;28;20488;-47
2023/03/05 08:48:30;;;;;;;26.37;14.47;;;12.90;45.30;;;;;;5010473;28;20217;-47
2023/03/05 08:50:56;;;;;;;24.20;13.57;;;13.00;45.10;;;;;;5012235;28;20544;-47
2023/03/05 08:53:22;;;;;;;20.50;13.20;;;13.00;44.70;;;;;;4995192;28;20445;-48
2023/03/05 08:55:55;;;;;;;23.47;13.63;;;12.90;44.50;;;;;;5005563;28;20460;-49
2023/03/05 08:58:21;;;;;;;23.27;12.73;;;12.90;44.60;;;;;;5011265;28;20871;-49
2023/03/05 09:00:46;;;;;;;25.37;14.77;;;12.90;44.80;;;;;;5013092;28;20471;-47
2023/03/05 09:03:12;;;;;;;26.60;13.93;;;12.90;44.90;;;;;;5011449;28;20242;-48
2023/03/05 09:05:37;;;;;;;27.50;14.10;;;13.00;45.00;;;;;;5011266;28;20226;-48
2023/03/05 09:08:03;;;;;;;22.17;13.60;;;13.00;44.70;;;;;;5009999;28;20232;-49
2023/03/05 09:10:29;;;;;;;20.10;13.90;;;13.00;44.50;;;;;;5011446;28;20217;-47
2023/03/05 09:12:54;;;;;;;19.40;12.63;;;13.00;44.70;;;;;;5012182;28;20194;-46
2023/03/05 09:15:20;;;;;;;28.27;12.83;;;13.10;45.00;;;;;;5010585;28;20190;-48
2023/03/05 09:17:45;;;;;;;23.50;15.43;;;13.10;44.90;;;;;;5011321;28;20194;-47
2023/03/05 09:20:12;;;;;;;23.97;12.50;;;13.20;44.70;;;;;;5001255;28;20671;-47
2023/03/05 09:22:38;;;;;;;20.13;12.63;;;13.20;44.20;;;;;;5011287;28;20344;-49
2023/03/05 09:25:05;;;;;;;21.00;12.90;;;13.20;44.00;;;;;;5010564;28;20575;-49
2023/03/05 09:27:34;;;;;;;26.10;16.00;;;13.20;44.00;;;;;;5011650;28;21033;-47
2023/03/05 09:30:00;;;;;;;21.40;13.00;;;13.20;44.10;;;;;;5010656;28;20445;-50
2023/03/05 09:32:25;;;;;;;23.03;13.50;;;13.10;44.00;;;;;;5010099;28;20445;-48
2023/03/05 09:34:51;;;;;;;23.80;14.40;;;13.10;44.40;;;;;;5011656;28;20261;-50
2023/03/05 09:37:17;;;;;;;31.40;17.30;;;13.10;44.40;;;;;;5009018;28;20888;-47
2023/03/05 09:39:42;;;;;;;21.00;13.53;;;13.20;44.40;;;;;;4998061;28;20191;-48
2023/03/05 09:42:29;;;;;;;28.77;13.13;;;13.20;44.40;;;;;;5008827;28;20720;-48
2023/03/05 09:45:24;;;;;;;25.17;12.63;;;13.10;44.20;;;;;;5012235;28;20233;-50
2023/03/05 09:47:59;;;;;;;24.10;12.20;;;13.10;44.20;;;;;;5001934;28;20518;-47
2023/03/05 09:50:46;;;;;;;20.83;12.03;;;13.10;44.40;;;;;;5005287;28;20451;-47
2023/03/05 09:53:29;;;;;;;21.13;11.90;;;13.10;44.50;;;;;;5006924;28;20442;-47
2023/03/05 09:56:20;;;;;;;21.40;11.97;;;13.20;44.50;;;;;;4993795;28;20507;-51
2023/03/05 09:58:51;;;;;;;22.03;13.80;;;13.20;44.40;;;;;;5008537;28;20519;-50
2023/03/05 10:01:38;;;;;;;19.37;12.30;;;13.20;44.40;;;;;;5008644;28;20955;-47
2023/03/05 10:04:20;;;;;;;19.43;10.57;;;13.20;44.30;;;;;;4997381;28;20482;-48
2023/03/05 10:06:59;;;;;;;20.30;12.00;;;13.30;44.00;;;;;;5000872;28;20448;-50
2023/03/05 10:09:50;;;;;;;22.20;11.90;;;13.30;43.70;;;;;;4993665;28;20488;-49
2023/03/05 10:12:26;;;;;;;21.03;11.63;;;13.30;43.20;;;;;;5000813;28;20456;-48
2023/03/05 10:14:53;;;;;;;18.73;11.97;;;13.20;43.20;;;;;;5000027;28;20445;-48
2023/03/05 10:18:11;;;;;;;20.83;12.13;;;13.00;43.20;;;;;;5001632;28;20445;-49
2023/03/05 10:21:08;;;;;;;20.73;11.20;;;12.90;43.20;;;;;;4964958;28;20984;-49
2023/03/05 10:23:46;;;;;;;21.70;11.10;;;12.70;43.60;;;;;;5002728;28;20462;-49
2023/03/05 10:26:29;;;;;;;17.13;11.03;;;12.60;43.60;;;;;;5003625;28;20488;-49
2023/03/05 10:29:13;;;;;;;19.73;11.83;;;12.40;43.70;;;;;;5002764;28;20446;-50
2023/03/05 10:31:50;;;;;;;17.37;11.20;;;12.40;43.80;;;;;;5007150;28;20436;-48
2023/03/05 10:34:44;;;;;;;21.03;12.57;;;12.40;44.00;;;;;;4998795;28;20506;-48
2023/03/05 10:37:53;;;;;;;18.17;10.80;;;12.30;44.20;;;;;;4987591;28;20468;-49
2023/03/05 10:40:34;;;;;;;18.30;11.67;;;12.20;44.40;;;;;;4996134;28;20458;-49
2023/03/05 10:43:18;;;;;;;17.03;11.07;;;12.20;44.40;;;;;;5003752;28;20515;-52
2023/03/05 10:45:47;;;;;;;21.63;12.23;;;12.20;44.70;;;;;;5000679;28;20490;-50
2023/03/05 10:48:43;;;;;;;24.23;12.20;;;12.10;44.90;;;;;;5003784;28;20449;-48
2023/03/05 10:51:35;;;;;;;24.40;11.93;;;12.10;45.00;;;;;;4999903;28;20547;-52
2023/03/05 10:54:19;;;;;;;18.33;12.30;;;12.00;45.20;;;;;;5000079;28;20495;-48
2023/03/05 10:56:44;;;;;;;18.60;11.50;;;12.10;45.40;;;;;;5002030;28;20456;-50
2023/03/05 10:59:10;;;;;;;18.17;11.17;;;12.10;46.10;;;;;;5003503;28;20436;-49
2023/03/05 11:01:36;;;;;;;20.70;12.33;;;12.10;45.50;;;;;;5003063;28;20221;-51
2023/03/05 11:04:03;;;;;;;16.23;11.60;;;12.10;45.60;;;;;;5002799;28;20240;-49
2023/03/05 11:06:29;;;;;;;23.47;13.30;;;11.90;45.60;;;;;;4986400;28;20888;-52
2023/03/05 11:08:55;;;;;;;21.67;12.70;;;11.80;45.80;;;;;;4997145;28;20472;-51
2023/03/05 11:11:22;;;;;;;21.07;12.20;;;11.90;46.20;;;;;;5001324;28;20198;-50
2023/03/05 11:14:02;;;;;;;20.47;11.53;;;12.00;46.20;;;;;;5003521;28;20603;-52
2023/03/05 11:16:29;;;;;;;16.90;11.37;;;12.00;46.20;;;;;;5005497;28;20940;-48
2023/03/05 11:19:23;;;;;;;19.07;12.53;;;12.20;46.20;;;;;;5004257;28;20442;-50
2023/03/05 11:22:21;;;;;;;24.80;12.77;;;12.30;46.00;;;;;;5001282;28;20453;-51
2023/03/05 11:25:15;;;;;;;22.40;13.10;;;12.40;45.90;;;;;;5004006;28;20496;-50
2023/03/05 11:27:44;;;;;;;19.30;11.77;;;12.60;45.70;;;;;;5004192;28;20460;-50
2023/03/05 11:30:19;;;;;;;19.40;12.37;;;12.60;45.20;;;;;;5007032;28;20436;-48
2023/03/05 11:32:45;;;;;;;16.20;11.37;;;12.50;44.50;;;;;;5003345;28;20487;-50
2023/03/05 11:35:36;;;;;;;19.63;12.23;;;12.60;44.70;;;;;;4992479;28;20487;-52
2023/03/05 11:38:04;;;;;;;21.70;13.33;;;12.60;44.80;;;;;;4998001;28;20189;-51
2023/03/05 11:40:34;;;;;;;31.67;13.47;;;12.50;44.80;;;;;;5001417;28;20527;-49
2023/03/05 11:43:01;;;;;;;21.83;13.53;;;12.40;44.90;;;;;;5005766;28;20440;-50
2023/03/05 11:45:29;;;;;;;23.07;13.83;;;12.50;44.80;;;;;;5002302;28;20989;-53
2023/03/05 11:48:07;;;;;;;24.43;13.30;;;12.40;44.80;;;;;;4999084;28;20453;-49
2023/03/05 11:50:34;;;;;;;19.33;12.63;;;12.40;44.90;;;;;;5005785;28;20441;-49
2023/03/05 11:53:16;;;;;;;23.90;14.20;;;12.30;44.80;;;;;;4997672;28;20438;-49
2023/03/05 11:55:44;;;;;;;19.63;13.20;;;12.10;44.90;;;;;;4999908;28;20944;-49
2023/03/05 11:58:28;;;;;;;20.87;13.77;;;12.00;45.30;;;;;;5008627;28;20471;-48
2023/03/05 12:00:54;;;;;;;22.60;13.43;;;12.00;45.60;;;;;;5005435;28;20559;-52
2023/03/05 12:03:35;;;;;;;21.80;13.30;;;12.00;45.80;;;;;;5000481;28;20500;-49
2023/03/05 12:06:25;;;;;;;22.27;14.37;;;12.00;45.90;;;;;;5003126;28;20500;-49
2023/03/05 12:08:57;;;;;;;21.33;14.60;;;12.10;45.70;;;;;;5004890;28;20479;-49
2023/03/05 12:11:32;;;;;;;21.67;13.43;;;12.10;45.60;;;;;;5005544;28;20461;-52
2023/03/05 12:14:06;;;;;;;19.87;12.40;;;12.10;45.40;;;;;;5009564;28;20800;-53
2023/03/05 12:16:44;;;;;;;23.73;13.40;;;11.80;45.70;;;;;;4998802;28;20476;-54
2023/03/05 12:19:18;;;;;;;20.20;12.30;;;11.70;46.10;;;;;;5001909;28;20508;-53
2023/03/05 12:21:49;;;;;;;21.20;12.13;;;11.90;46.10;;;;;;4997994;28;20447;-53
2023/03/05 12:24:24;;;;;;;19.70;12.60;;;12.00;45.80;;;;;;5011204;28;20519;-54
2023/03/05 12:26:54;;;;;;;19.37;12.23;;;12.00;45.40;;;;;;5012586;28;20451;-52
2023/03/05 12:29:40;;;;;;;16.63;11.47;;;11.90;45.10;;;;;;5010131;28;20445;-54
2023/03/05 12:32:35;;;;;;;19.43;12.43;;;12.00;45.20;;;;;;5006136;28;20540;-52
2023/03/05 12:35:05;;;;;;;19.53;12.23;;;12.00;45.00;;;;;;4999090;28;21388;-52
2023/03/05 12:37:30;;;;;;;18.80;11.33;;;12.10;44.90;;;;;;4993151;28;20492;-50
2023/03/05 12:40:09;;;;;;;17.43;11.97;;;12.20;44.90;;;;;;5008558;28;20452;-53